^^
Station Historical Data
Daily Summary for September 26, 2017 Units:  Metric    English   Both
« Previous Day
Next Day »
Daily Weekly Monthly Yearly Custom
  High: Low: Average:
Temperature: 22.7 °C 6.4 °C 13.1 °C
Dew Point: 5.8 °C -10.9 °C 0.7 °C
Humidity: 76% 11% 51%
Wind Speed: 28.8km/h 0km/h 10.3km/h
Wind Gust: 33.8km/h - -
Wind- - SSE
Pressure: 1019.9 hPa 1014.8 hPa -
Precipitation: 0 mm    
Historical Graphs
 
 
Tabular Data for September 26, 2017
Time Temperature Dew Point Pressure Wind Wind Speed Wind Gust Humidity Rainfall Rate (Hourly) solar Conditions
00:01 10.7 °C 5.7 °C 1016.5 hPa SSE 13 km/h 25.7 km/h 71% 0 mm 0.0 W/m2
00:06 10.7 °C 5.7 °C 1016.5 hPa SSE 20.9 km/h 25.7 km/h 71% 0 mm 0.0 W/m2
00:16 10.6 °C 5.6 °C 1016.5 hPa SSE 20.9 km/h 25.7 km/h 71% 0 mm 0.0 W/m2
00:21 10.6 °C 5.8 °C 1016.8 hPa SSE 19.5 km/h 27.4 km/h 72% 0 mm 0.0 W/m2
00:26 10.6 °C 5.6 °C 1016.8 hPa SE 22.7 km/h 25.7 km/h 71% 0 mm 0.0 W/m2
00:32 10.6 °C 5.4 °C 1016.8 hPa SSE 22.7 km/h 22.7 km/h 70% 0 mm 0.0 W/m2
00:38 10.6 °C 5.1 °C 1016.8 hPa SSE 22.7 km/h 27.4 km/h 69% 0 mm 0.0 W/m2
00:46 10.5 °C 5.3 °C 1016.8 hPa SSE 19.5 km/h 22.5 km/h 70% 0 mm 0.0 W/m2
00:56 10.4 °C 5 °C 1016.8 hPa SSE 28.8 km/h 29 km/h 69% 0 mm 0.0 W/m2
01:01 10.5 °C 5.1 °C 1016.8 hPa SSE 14.3 km/h 25.7 km/h 69% 0 mm 0.0 W/m2
01:06 10.5 °C 5.3 °C 1016.8 hPa SSE 22.7 km/h 22.7 km/h 70% 0 mm 0.0 W/m2
01:12 10.4 °C 5 °C 1016.8 hPa SSE 24.1 km/h 30.6 km/h 69% 0 mm 0.0 W/m2
01:21 10.2 °C 4.1 °C 1016.8 hPa SSE 20.9 km/h 29 km/h 66% 0 mm 0.0 W/m2
01:26 10.2 °C 4.3 °C 1016.5 hPa South 22.7 km/h 27.4 km/h 67% 0 mm 0.0 W/m2
01:36 10 °C 3.9 °C 1016.5 hPa SSE 28.8 km/h 30.6 km/h 66% 0 mm 0.0 W/m2
01:41 10 °C 4.2 °C 1016.5 hPa SSE 22.7 km/h 25.7 km/h 67% 0 mm 0.0 W/m2
01:46 10 °C 3.9 °C 1016.5 hPa SSE 20.9 km/h 22.5 km/h 66% 0 mm 0.0 W/m2
01:56 10.1 °C 4 °C 1016.8 hPa SSE 22.7 km/h 27.4 km/h 66% 0 mm 0.0 W/m2
02:01 10.1 °C 3.8 °C 1016.5 hPa SSE 22.7 km/h 30.6 km/h 65% 0 mm 0.0 W/m2
02:06 10 °C 3.9 °C 1016.8 hPa SSE 19.5 km/h 25.7 km/h 66% 0 mm 0.0 W/m2
02:11 10 °C 3.9 °C 1016.8 hPa SSE 20.9 km/h 25.7 km/h 66% 0 mm 0.0 W/m2
02:16 9.9 °C 4.1 °C 1016.8 hPa South 14.3 km/h 24.1 km/h 67% 0 mm 0.0 W/m2
02:21 9.8 °C 4.2 °C 1016.5 hPa South 14.3 km/h 24.1 km/h 68% 0 mm 0.0 W/m2
02:27 9.8 °C 4.2 °C 1016.5 hPa SSW 24.1 km/h 27.4 km/h 68% 0 mm 0.0 W/m2
02:36 9.7 °C 4.1 °C 1016.8 hPa South 16.3 km/h 22.5 km/h 68% 0 mm 0.0 W/m2
02:41 9.7 °C 4.1 °C 1016.8 hPa SSE 17.7 km/h 24.1 km/h 68% 0 mm 0.0 W/m2
02:47 9.7 °C 3.7 °C 1016.8 hPa SSE 19.5 km/h 25.7 km/h 66% 0 mm 0.0 W/m2
02:52 9.7 °C 3.9 °C 1016.5 hPa South 25.9 km/h 27.4 km/h 67% 0 mm 0.0 W/m2
03:02 9.5 °C 3.5 °C 1016.8 hPa SSE 24.1 km/h 33.8 km/h 66% 0 mm 0.0 W/m2
03:12 9.3 °C 3.5 °C 1016.8 hPa SSE 24.1 km/h 29 km/h 67% 0 mm 0.0 W/m2
03:17 9.3 °C 3.5 °C 1016.8 hPa SSE 14.3 km/h 29 km/h 67% 0 mm 0.0 W/m2
03:27 9.1 °C 3.3 °C 1016.8 hPa SSE 20.9 km/h 30.6 km/h 67% 0 mm 0.0 W/m2
03:32 9 °C 3.2 °C 1016.5 hPa SSE 24.1 km/h 25.7 km/h 67% 0 mm 0.0 W/m2
03:37 9 °C 3.2 °C 1016.5 hPa SE 20.9 km/h 24.1 km/h 67% 0 mm 0.0 W/m2
03:42 8.9 °C 3.1 °C 1016.8 hPa SSE 19.5 km/h 24.1 km/h 67% 0 mm 0.0 W/m2
03:47 8.9 °C 3.1 °C 1016.8 hPa SSE 22.7 km/h 24.1 km/h 67% 0 mm 0.0 W/m2
03:52 8.8 °C 2.8 °C 1016.5 hPa SSE 13 km/h 24.1 km/h 66% 0 mm 0.0 W/m2
04:02 8.8 °C 2.8 °C 1016.8 hPa SSE 20.9 km/h 22.5 km/h 66% 0 mm 0.0 W/m2
04:07 8.7 °C 2.7 °C 1016.8 hPa SSE 20.9 km/h 22.5 km/h 66% 0 mm 0.0 W/m2
04:17 8.6 °C 2.6 °C 1016.8 hPa SSE 19.5 km/h 20.9 km/h 66% 0 mm 0.0 W/m2
04:22 8.6 °C 2.8 °C 1016.8 hPa SSE 16.3 km/h 24.1 km/h 67% 0 mm 0.0 W/m2
04:27 8.5 °C 2.7 °C 1016.8 hPa SSE 16.3 km/h 17.7 km/h 67% 0 mm 0.0 W/m2
04:37 8.4 °C 2.6 °C 1016.8 hPa SSE 17.7 km/h 20.9 km/h 67% 0 mm 0.0 W/m2
04:47 8.3 °C 2.5 °C 1016.8 hPa SSE 11.1 km/h 16.1 km/h 67% 0 mm 0.0 W/m2
04:57 8.3 °C 2.5 °C 1017.2 hPa SSE 11.1 km/h 14.5 km/h 67% 0 mm 0.0 W/m2
05:02 8.2 °C 2.4 °C 1017.2 hPa SSE 13 km/h 17.7 km/h 67% 0 mm 0.0 W/m2
05:17 8.1 °C 2.3 °C 1017.5 hPa SSE 11.1 km/h 12.9 km/h 67% 0 mm 0.0 W/m2
05:23 7.9 °C 2.4 °C 1017.5 hPa South 11.1 km/h 16.1 km/h 68% 0 mm 0.0 W/m2
05:32 7.6 °C 2.5 °C 1017.8 hPa South 13 km/h 14.5 km/h 70% 0 mm 0.0 W/m2
05:37 7.5 °C 2.6 °C 1017.5 hPa South 7.9 km/h 11.3 km/h 71% 0 mm 0.0 W/m2
05:48 7.3 °C 2.6 °C 1017.8 hPa South 9.7 km/h 14.5 km/h 72% 0 mm 0.0 W/m2
05:53 7.2 °C 2.5 °C 1017.8 hPa South 11.1 km/h 12.9 km/h 72% 0 mm 0.0 W/m2
05:58 7.1 °C 2.6 °C 1017.8 hPa South 9.7 km/h 12.9 km/h 73% 0 mm 0.0 W/m2
06:03 7 °C 2.5 °C 1017.8 hPa South 6.4 km/h 9.7 km/h 73% 0 mm 0.0 W/m2
06:08 6.8 °C 2.5 °C 1018.2 hPa South 7.9 km/h 9.7 km/h 74% 0 mm 0.0 W/m2
06:13 6.8 °C 2.5 °C 1018.2 hPa South 7.9 km/h 8 km/h 74% 0 mm 0.0 W/m2
06:23 6.6 °C 2.3 °C 1018.2 hPa South 9.7 km/h 9.7 km/h 74% 0 mm 0.0 W/m2
06:33 6.6 °C 2.5 °C 1018.2 hPa South 7.9 km/h 8 km/h 75% 0 mm 0.0 W/m2
06:38 6.4 °C 2.3 °C 1018.5 hPa South 7.9 km/h 11.3 km/h 75% 0 mm 7.0 W/m2
06:43 6.6 °C 2.7 °C 1018.5 hPa South 7.9 km/h 11.3 km/h 76% 0 mm 11.0 W/m2
06:48 6.7 °C 2.8 °C 1018.5 hPa South 7.9 km/h 11.3 km/h 76% 0 mm 14.0 W/m2
06:53 6.7 °C 2.8 °C 1018.5 hPa South 4.7 km/h 11.3 km/h 76% 0 mm 18.0 W/m2
06:58 6.8 °C 2.9 °C 1018.8 hPa South 7.9 km/h 8 km/h 76% 0 mm 28.0 W/m2
07:03 6.9 °C 3 °C 1018.8 hPa South 6.4 km/h 8 km/h 76% 0 mm 42.0 W/m2
07:09 7.1 °C 3.2 °C 1018.8 hPa South 7.9 km/h 9.7 km/h 76% 0 mm 56.0 W/m2
07:32 7.6 °C 3.6 °C 1018.8 hPa South 9.7 km/h 12.9 km/h 76% 0 mm 134.0 W/m2
08:46 9.2 °C 3.8 °C 1019.9 hPa South 7.9 km/h 11.3 km/h 69% 0 mm 404.0 W/m2
09:00 9.6 °C 3.8 °C 1019.9 hPa South 9.7 km/h 9.7 km/h 67% 0 mm 452.0 W/m2
09:16 10.1 °C 3.6 °C 1019.5 hPa South 9.7 km/h 9.7 km/h 64% 0 mm 506.0 W/m2
09:31 10.5 °C 3.5 °C 1019.5 hPa Calm     62% 0 mm 554.0 W/m2
09:46 11.2 °C 3.2 °C 1019.5 hPa South 6.4 km/h 8 km/h 58% 0 mm 601.0 W/m2
09:59 11.8 °C 3 °C 1019.5 hPa South 4.7 km/h 11.3 km/h 55% 0 mm 647.0 W/m2
10:12 12.6 °C 2.7 °C 1019.5 hPa Calm     51% 0 mm 671.0 W/m2
10:25 13.1 °C 1.7 °C 1019.5 hPa Calm   3.2 km/h 46% 0 mm 707.0 W/m2
10:33 13.6 °C 2.2 °C 1019.5 hPa Calm     46% 0 mm 738.0 W/m2
10:39 13.8 °C 2.1 °C 1019.5 hPa Calm     45% 0 mm 751.0 W/m2
10:42 14 °C 1.9 °C 1019.2 hPa Calm     44% 0 mm 763.0 W/m2
10:58 14.4 °C 1.3 °C 1019.2 hPa Calm     41% 0 mm 786.0 W/m2
11:13 15.2 °C 1 °C 1018.8 hPa Calm     38% 0 mm 810.0 W/m2
11:23 15.6 °C -0.2 °C 1018.5 hPa Calm     34% 0 mm 830.0 W/m2
11:35 16.2 °C -0.1 °C 1018.5 hPa Calm     33% 0 mm 846.0 W/m2
11:43 17.1 °C -1.6 °C 1018.5 hPa Calm   11.3 km/h 28% 0 mm 858.0 W/m2
11:55 17.3 °C -1.4 °C 1018.2 hPa Calm   1.6 km/h 28% 0 mm 861.0 W/m2
12:04 17.3 °C -2.4 °C 1018.2 hPa SE 13 km/h 16.1 km/h 26% 0 mm 879.0 W/m2
12:19 17.9 °C -4.1 °C 1017.8 hPa ESE 17.7 km/h 17.7 km/h 22% 0 mm 886.0 W/m2
12:29 18.7 °C -6.1 °C 1017.5 hPa ESE 16.3 km/h 16.3 km/h 18% 0 mm 891.0 W/m2
12:44 19.1 °C -7.3 °C 1017.5 hPa ESE 9.7 km/h 17.7 km/h 16% 0 mm 891.0 W/m2
13:04 19.7 °C -6.8 °C 1016.8 hPa Calm   3.2 km/h 16% 0 mm 891.0 W/m2
13:09 19.9 °C -6.7 °C 1016.8 hPa Calm     16% 0 mm 882.0 W/m2
13:24 20.8 °C -4.4 °C 1016.5 hPa Calm   8 km/h 18% 0 mm 865.0 W/m2
13:40 20.2 °C -4.9 °C 1016.1 hPa Calm     18% 0 mm 851.0 W/m2
13:56 20.8 °C -3 °C 1016.1 hPa Calm   6.4 km/h 20% 0 mm 835.0 W/m2
14:10 20.9 °C -3.6 °C 1016.1 hPa Calm     19% 0 mm 814.0 W/m2
14:21 20.3 °C -2.7 °C 1015.8 hPa NNE 9.7 km/h 9.7 km/h 21% 0 mm 795.0 W/m2
14:31 20.8 °C -3 °C 1015.8 hPa Calm   12.9 km/h 20% 0 mm 766.0 W/m2
14:37 20.8 °C -3 °C 1015.8 hPa Calm   12.9 km/h 20% 0 mm 766.0 W/m2
14:52 21.3 °C -3.3 °C 1015.5 hPa NNE 9.7 km/h 20.9 km/h 19% 0 mm 735.0 W/m2
15:01 21.9 °C -3.5 °C 1015.5 hPa Calm     18% 0 mm 698.0 W/m2
15:08 21.9 °C -3.5 °C 1015.5 hPa Calm     18% 0 mm 698.0 W/m2
15:22 21.7 °C -2.2 °C 1015.1 hPa Calm     20% 0 mm 657.0 W/m2
15:38 21.3 °C -2.6 °C 1015.1 hPa Calm   11.3 km/h 20% 0 mm 615.0 W/m2
15:53 21.8 °C -2.9 °C 1015.1 hPa Calm     19% 0 mm 577.0 W/m2
16:10 21.9 °C -4.3 °C 1014.8 hPa NNE 13 km/h 16.1 km/h 17% 0 mm 534.0 W/m2
16:24 21.6 °C -5.3 °C 1015.1 hPa Calm     16% 0 mm 482.0 W/m2
16:33 21.9 °C -6.8 °C 1014.8 hPa Calm     14% 0 mm 429.0 W/m2
16:43 21.8 °C -6.9 °C 1015.1 hPa Calm     14% 0 mm 394.0 W/m2
17:03 22.7 °C -5.3 °C 1015.1 hPa Calm     15% 0 mm 339.0 W/m2
17:11 22.4 °C -6.4 °C 1015.1 hPa Calm   9.7 km/h 14% 0 mm 308.0 W/m2
17:19 22.2 °C -6.6 °C 1015.1 hPa Calm     14% 0 mm 288.0 W/m2
17:24 22.2 °C -6.6 °C 1015.1 hPa Calm     14% 0 mm 251.0 W/m2
17:34 22.3 °C -6.5 °C 1015.1 hPa Calm     14% 0 mm 232.0 W/m2
17:45 22.3 °C -6.5 °C 1015.1 hPa Calm     14% 0 mm 183.0 W/m2
18:01 22.1 °C -6.7 °C 1015.1 hPa Calm     14% 0 mm 116.0 W/m2
18:10 22.1 °C -7.6 °C 1015.1 hPa Calm     13% 0 mm 65.0 W/m2
18:26 21.8 °C -6.9 °C 1015.5 hPa Calm     14% 0 mm 18.0 W/m2
18:54 21 °C -9.5 °C 1015.5 hPa Calm     12% 0 mm 5.0 W/m2
19:06 20.6 °C -10.9 °C 1015.1 hPa Calm     11% 0 mm 0.0 W/m2
19:14 20.4 °C -10 °C 1015.5 hPa Calm     12% 0 mm 0.0 W/m2
Canyon Roadhouse, Fishriver Canyon, Namibia
Compliments of Weather Underground - 2.25 mb